Time;durP1;ratioP1;P1;durP2;ratioP2;P2;SDS_P1;SDS_P2;PMS_P1;PMS_P2;Temp;Humidity;BMP_temperature;BMP_pressure;BME280_temperature;BME280_humidity;BME280_pressure;Samples;Min_cycle;Max_cycle;Signal;HPM_P1;HPM_P2
2021/10/16 00:01:51;;;;;;;10.18;3.33;;;;;;;;;;5083036;28;20408;-56
2021/10/16 00:04:18;;;;;;;8.38;3.17;;;;;;;;;;5078810;28;20040;-56
2021/10/16 00:06:45;;;;;;;7.47;3.45;;;;;;;;;;5077493;28;20074;-57
2021/10/16 00:09:12;;;;;;;6.40;3.28;;;;;;;;;;5092269;28;20078;-56
2021/10/16 00:11:38;;;;;;;19.35;3.67;;;;;;;;;;5079215;28;20495;-57
2021/10/16 00:14:05;;;;;;;10.55;3.67;;;;;;;;;;5078975;28;20064;-56
2021/10/16 00:16:31;;;;;;;9.07;3.20;;;;;;;;;;5079090;28;20044;-56
2021/10/16 00:18:57;;;;;;;10.98;3.65;;;;;;;;;;5079101;28;20056;-56
2021/10/16 00:21:24;;;;;;;11.35;5.35;;;;;;;;;;5074449;28;20047;-56
2021/10/16 00:23:50;;;;;;;8.88;3.63;;;;;;;;;;5078113;28;20127;-57
2021/10/16 00:26:17;;;;;;;9.88;4.53;;;;;;;;;;5078978;28;20044;-56
2021/10/16 00:28:44;;;;;;;12.57;4.13;;;;;;;;;;5081439;28;20040;-56
2021/10/16 00:31:10;;;;;;;7.70;4.65;;;;;;;;;;5088222;28;20048;-56
2021/10/16 00:33:37;;;;;;;9.38;3.75;;;;;;;;;;5075661;28;20048;-56
2021/10/16 00:36:03;;;;;;;9.07;4.80;;;;;;;;;;5073701;28;20059;-56
2021/10/16 00:38:30;;;;;;;11.65;4.32;;;;;;;;;;5086017;28;20450;-56
2021/10/16 00:40:56;;;;;;;9.25;4.05;;;;;;;;;;5085031;28;20044;-56
2021/10/16 00:43:22;;;;;;;8.77;3.95;;;;;;;;;;5086259;28;20412;-56
2021/10/16 00:45:49;;;;;;;11.15;4.63;;;;;;;;;;5073443;28;20045;-56
2021/10/16 00:48:15;;;;;;;12.05;4.35;;;;;;;;;;5090430;28;20040;-56
2021/10/16 00:50:42;;;;;;;7.90;4.30;;;;;;;;;;5087287;28;20051;-56
2021/10/16 00:53:08;;;;;;;7.03;4.10;;;;;;;;;;5084149;28;20051;-56
2021/10/16 00:55:35;;;;;;;13.23;4.80;;;;;;;;;;5084421;28;20045;-56
2021/10/16 00:58:02;;;;;;;23.80;5.07;;;;;;;;;;5077259;28;20496;-55
2021/10/16 01:00:28;;;;;;;8.80;4.22;;;;;;;;;;5074167;28;20058;-56
2021/10/16 01:02:56;;;;;;;9.38;4.40;;;;;;;;;;5075321;28;20526;-56
2021/10/16 01:05:22;;;;;;;13.73;5.28;;;;;;;;;;5074886;28;20071;-57
2021/10/16 01:07:50;;;;;;;12.80;5.65;;;;;;;;;;5074923;28;20068;-56
2021/10/16 01:10:16;;;;;;;11.52;5.57;;;;;;;;;;5077565;28;20048;-56
2021/10/16 01:12:44;;;;;;;10.40;4.45;;;;;;;;;;5074945;28;20059;-56
2021/10/16 01:15:12;;;;;;;15.43;5.00;;;;;;;;;;5074959;28;20043;-56
2021/10/16 01:17:41;;;;;;;8.52;3.63;;;;;;;;;;5077689;28;20044;-56
2021/10/16 01:20:09;;;;;;;12.20;5.40;;;;;;;;;;5081892;28;20087;-56
2021/10/16 01:22:40;;;;;;;9.77;4.88;;;;;;;;;;5083213;28;20040;-56
2021/10/16 01:25:18;;;;;;;11.10;5.20;;;;;;;;;;5077115;28;20491;-56
2021/10/16 01:27:44;;;;;;;9.23;4.90;;;;;;;;;;5075069;28;20073;-56
2021/10/16 01:30:13;;;;;;;22.20;4.32;;;;;;;;;;5073330;28;20076;-56
2021/10/16 01:32:40;;;;;;;10.85;4.90;;;;;;;;;;5077267;28;20057;-56
2021/10/16 01:35:08;;;;;;;7.13;4.47;;;;;;;;;;5085181;28;20064;-56
2021/10/16 01:37:34;;;;;;;11.80;4.70;;;;;;;;;;5084237;28;20036;-56
2021/10/16 01:40:02;;;;;;;7.35;3.38;;;;;;;;;;5077484;28;20043;-56
2021/10/16 01:42:32;;;;;;;8.13;4.47;;;;;;;;;;5074557;28;20066;-56
2021/10/16 01:45:03;;;;;;;13.15;4.72;;;;;;;;;;5074507;28;20496;-56
2021/10/16 01:47:29;;;;;;;14.85;5.63;;;;;;;;;;5086826;28;20506;-56
2021/10/16 01:49:56;;;;;;;23.45;5.70;;;;;;;;;;5083818;28;20106;-56
2021/10/16 01:52:23;;;;;;;6.88;4.15;;;;;;;;;;5083927;28;20135;-56
2021/10/16 01:54:52;;;;;;;11.48;4.78;;;;;;;;;;5088444;28;20443;-56
2021/10/16 01:57:19;;;;;;;7.32;3.78;;;;;;;;;;5072335;28;20086;-56
2021/10/16 01:59:54;;;;;;;15.15;5.15;;;;;;;;;;5091457;28;20376;-56
2021/10/16 02:02:21;;;;;;;19.08;5.40;;;;;;;;;;5078018;28;20087;-56
2021/10/16 02:05:01;;;;;;;13.52;5.22;;;;;;;;;;5080186;28;20120;-56
2021/10/16 02:07:27;;;;;;;13.77;5.65;;;;;;;;;;5086137;28;20522;-56
2021/10/16 02:09:54;;;;;;;10.75;5.45;;;;;;;;;;5076519;28;20036;-56
2021/10/16 02:12:20;;;;;;;10.10;5.65;;;;;;;;;;5072126;28;20045;-56
2021/10/16 02:14:47;;;;;;;16.42;5.75;;;;;;;;;;5070186;28;20075;-56
2021/10/16 02:17:18;;;;;;;16.50;4.88;;;;;;;;;;5083375;28;20052;-56
2021/10/16 02:19:44;;;;;;;11.10;6.10;;;;;;;;;;5081340;28;20048;-56
2021/10/16 02:22:11;;;;;;;13.38;5.55;;;;;;;;;;5073826;28;20056;-56
2021/10/16 02:24:38;;;;;;;15.63;6.20;;;;;;;;;;5087274;28;20446;-56
2021/10/16 02:27:05;;;;;;;9.10;5.57;;;;;;;;;;5071280;28;20483;-56
2021/10/16 02:29:31;;;;;;;14.82;5.78;;;;;;;;;;5084613;28;20097;-56
2021/10/16 02:32:05;;;;;;;13.18;6.47;;;;;;;;;;5083549;28;20048;-56
2021/10/16 02:34:33;;;;;;;13.07;5.85;;;;;;;;;;5082455;28;20087;-56
2021/10/16 02:37:04;;;;;;;12.77;5.18;;;;;;;;;;5072330;28;20496;-56
2021/10/16 02:39:31;;;;;;;10.20;5.28;;;;;;;;;;5088121;28;20044;-56
2021/10/16 02:41:59;;;;;;;13.07;5.30;;;;;;;;;;5075329;28;20500;-56
2021/10/16 02:44:30;;;;;;;8.10;4.60;;;;;;;;;;5085782;28;20138;-56
2021/10/16 02:46:58;;;;;;;9.30;5.00;;;;;;;;;;5083358;28;20066;-56
2021/10/16 02:49:24;;;;;;;12.63;5.28;;;;;;;;;;5083164;28;20101;-56
2021/10/16 02:51:51;;;;;;;11.52;6.10;;;;;;;;;;5084071;28;20112;-56
2021/10/16 02:54:17;;;;;;;9.48;4.70;;;;;;;;;;5089189;28;20125;-56
2021/10/16 02:56:46;;;;;;;11.75;5.00;;;;;;;;;;5075502;28;20068;-56
2021/10/16 02:59:14;;;;;;;15.00;5.18;;;;;;;;;;5081879;28;20415;-56
2021/10/16 03:01:51;;;;;;;12.88;5.05;;;;;;;;;;5083394;28;20040;-56
2021/10/16 03:04:23;;;;;;;14.02;5.32;;;;;;;;;;5080458;28;20155;-55
2021/10/16 03:06:49;;;;;;;10.50;4.68;;;;;;;;;;5077025;28;20044;-56
2021/10/16 03:09:17;;;;;;;13.55;5.03;;;;;;;;;;5087909;28;20522;-56
2021/10/16 03:11:45;;;;;;;18.08;5.22;;;;;;;;;;5075521;28;20047;-56
2021/10/16 03:14:11;;;;;;;15.20;5.78;;;;;;;;;;5081448;28;20135;-56
2021/10/16 03:16:40;;;;;;;8.10;4.68;;;;;;;;;;5080779;28;20102;-56
2021/10/16 03:19:09;;;;;;;9.30;4.82;;;;;;;;;;5075288;28;20075;-56
2021/10/16 03:21:35;;;;;;;12.85;4.43;;;;;;;;;;5076252;28;20032;-57
2021/10/16 03:24:05;;;;;;;11.55;3.80;;;;;;;;;;5076320;28;20091;-56
2021/10/16 03:26:32;;;;;;;7.18;3.45;;;;;;;;;;5087714;28;20542;-56
2021/10/16 03:28:59;;;;;;;10.82;4.95;;;;;;;;;;5086570;28;20040;-56
2021/10/16 03:31:25;;;;;;;7.85;4.60;;;;;;;;;;5086518;28;20087;-56
2021/10/16 03:33:52;;;;;;;11.57;3.85;;;;;;;;;;5078730;28;20044;-56
2021/10/16 03:36:19;;;;;;;7.68;3.65;;;;;;;;;;5090684;28;20403;-56
2021/10/16 03:38:45;;;;;;;16.63;4.38;;;;;;;;;;5079862;28;20079;-56
2021/10/16 03:41:12;;;;;;;9.13;4.15;;;;;;;;;;5085266;28;20407;-56
2021/10/16 03:43:38;;;;;;;11.80;4.05;;;;;;;;;;5082737;28;20044;-56
2021/10/16 03:46:05;;;;;;;12.30;4.18;;;;;;;;;;5076153;28;20048;-56
2021/10/16 03:48:31;;;;;;;6.90;3.03;;;;;;;;;;5090969;28;20507;-56
2021/10/16 03:50:58;;;;;;;12.45;4.55;;;;;;;;;;5076954;28;20045;-56
2021/10/16 03:53:25;;;;;;;7.07;3.08;;;;;;;;;;5080284;28;20127;-56
2021/10/16 03:55:52;;;;;;;9.15;3.58;;;;;;;;;;5082506;28;20036;-56
2021/10/16 03:58:19;;;;;;;8.32;3.88;;;;;;;;;;5087737;28;20492;-56
2021/10/16 04:00:48;;;;;;;7.40;3.50;;;;;;;;;;5077455;28;20115;-56
2021/10/16 04:03:17;;;;;;;13.52;4.65;;;;;;;;;;5080328;28;20587;-56
2021/10/16 04:05:44;;;;;;;5.78;3.05;;;;;;;;;;5078488;28;20500;-56
2021/10/16 04:08:11;;;;;;;10.98;3.97;;;;;;;;;;5084549;28;20048;-56
2021/10/16 04:10:38;;;;;;;8.48;3.70;;;;;;;;;;5087047;28;20092;-56
2021/10/16 04:13:04;;;;;;;7.50;3.60;;;;;;;;;;5075460;28;20059;-56
2021/10/16 04:15:36;;;;;;;8.18;3.20;;;;;;;;;;5090351;28;20456;-56
2021/10/16 04:18:03;;;;;;;8.23;3.33;;;;;;;;;;5075979;28;20049;-56
2021/10/16 04:20:29;;;;;;;15.30;4.50;;;;;;;;;;5078391;28;20056;-57
2021/10/16 04:22:57;;;;;;;13.02;4.05;;;;;;;;;;5075549;28;20492;-56
2021/10/16 04:25:24;;;;;;;10.43;4.43;;;;;;;;;;5078846;28;20082;-56
2021/10/16 04:27:50;;;;;;;11.35;4.10;;;;;;;;;;5075330;28;20040;-56
2021/10/16 04:30:35;;;;;;;9.63;4.03;;;;;;;;;;5076328;28;20544;-56
2021/10/16 04:33:03;;;;;;;9.30;3.67;;;;;;;;;;5074822;28;20206;-56
2021/10/16 04:35:29;;;;;;;10.35;3.92;;;;;;;;;;5079404;28;20045;-56
2021/10/16 04:37:56;;;;;;;6.65;2.92;;;;;;;;;;5078433;28;20502;-56
2021/10/16 04:40:26;;;;;;;8.55;3.15;;;;;;;;;;5077045;28;20075;-56
2021/10/16 04:42:56;;;;;;;8.40;3.92;;;;;;;;;;5089996;28;20054;-55
2021/10/16 04:45:23;;;;;;;16.08;3.80;;;;;;;;;;5082189;28;20052;-56
2021/10/16 04:47:52;;;;;;;8.52;3.75;;;;;;;;;;5089008;28;20048;-56
2021/10/16 04:50:19;;;;;;;12.00;2.85;;;;;;;;;;5086279;28;20044;-56
2021/10/16 04:52:47;;;;;;;10.07;3.33;;;;;;;;;;5084542;28;20533;-56
2021/10/16 04:55:23;;;;;;;;;;;;;;;;;;5088848;28;20047;-56
2021/10/16 04:57:51;;;;;;;8.27;2.78;;;;;;;;;;5076030;28;19920;-56
2021/10/16 05:00:19;;;;;;;8.77;3.10;;;;;;;;;;5073863;28;20070;-56
2021/10/16 05:02:46;;;;;;;7.95;2.72;;;;;;;;;;5088477;28;20443;-56
2021/10/16 05:05:12;;;;;;;13.38;3.75;;;;;;;;;;5085052;28;20083;-56
2021/10/16 05:07:41;;;;;;;5.85;3.47;;;;;;;;;;5083336;28;20135;-56
2021/10/16 05:10:08;;;;;;;10.25;3.33;;;;;;;;;;5074801;28;20052;-56
2021/10/16 05:12:34;;;;;;;5.95;3.35;;;;;;;;;;5089359;28;20052;-56
2021/10/16 05:15:01;;;;;;;14.07;3.38;;;;;;;;;;5073553;28;20435;-54
2021/10/16 05:17:30;;;;;;;7.55;3.03;;;;;;;;;;5085111;28;20164;-56
2021/10/16 05:19:56;;;;;;;7.97;2.65;;;;;;;;;;5081920;28;20075;-56
2021/10/16 05:22:23;;;;;;;11.25;3.72;;;;;;;;;;5078266;28;20040;-56
2021/10/16 05:24:49;;;;;;;10.20;2.97;;;;;;;;;;5089810;28;20051;-56
2021/10/16 05:27:15;;;;;;;5.80;3.33;;;;;;;;;;5087977;28;20052;-56
2021/10/16 05:29:42;;;;;;;6.80;2.97;;;;;;;;;;5120183;27;20051;-56
2021/10/16 05:32:10;;;;;;;6.93;3.30;;;;;;;;;;5085881;28;20123;-56
2021/10/16 05:34:36;;;;;;;6.13;3.42;;;;;;;;;;5085491;28;20074;-56
2021/10/16 05:37:04;;;;;;;12.50;4.32;;;;;;;;;;5085047;28;20105;-55
2021/10/16 05:39:31;;;;;;;13.52;4.38;;;;;;;;;;5086984;28;20048;-56
2021/10/16 05:41:58;;;;;;;19.95;3.35;;;;;;;;;;5106657;27;20068;-56
2021/10/16 05:44:25;;;;;;;9.45;3.42;;;;;;;;;;5112398;27;20117;-56
2021/10/16 05:46:51;;;;;;;7.25;2.63;;;;;;;;;;5082058;28;20049;-56
2021/10/16 05:49:19;;;;;;;8.23;2.63;;;;;;;;;;5110391;27;20044;-56
2021/10/16 05:51:45;;;;;;;5.32;3.20;;;;;;;;;;5089310;28;20093;-56
2021/10/16 05:54:11;;;;;;;10.05;4.03;;;;;;;;;;5083011;28;20059;-56
2021/10/16 05:56:38;;;;;;;10.93;4.05;;;;;;;;;;5070833;28;20086;-56
2021/10/16 05:59:04;;;;;;;9.48;3.60;;;;;;;;;;5082041;28;20040;-55
2021/10/16 06:01:31;;;;;;;15.93;3.30;;;;;;;;;;5084750;28;20036;-55
2021/10/16 06:03:58;;;;;;;9.45;3.85;;;;;;;;;;5086341;28;20070;-56
2021/10/16 06:06:24;;;;;;;12.77;2.05;;;;;;;;;;5076756;28;20036;-56
2021/10/16 06:08:51;;;;;;;14.82;4.35;;;;;;;;;;5084766;28;20051;-56
2021/10/16 06:11:17;;;;;;;9.40;3.35;;;;;;;;;;5083359;28;20064;-56
2021/10/16 06:13:44;;;;;;;13.35;4.22;;;;;;;;;;5087523;28;20072;-56
2021/10/16 06:16:11;;;;;;;12.70;4.18;;;;;;;;;;5087227;28;20541;-56
2021/10/16 06:18:40;;;;;;;7.70;3.92;;;;;;;;;;5087449;28;20702;-56
2021/10/16 06:21:08;;;;;;;12.30;4.40;;;;;;;;;;5087794;28;20044;-56
2021/10/16 06:23:38;;;;;;;11.25;4.13;;;;;;;;;;5086171;28;20149;-54
2021/10/16 06:26:07;;;;;;;6.88;3.40;;;;;;;;;;5085423;28;20040;-55
2021/10/16 06:28:33;;;;;;;5.00;2.67;;;;;;;;;;5082774;28;20052;-56
2021/10/16 06:31:00;;;;;;;13.32;3.72;;;;;;;;;;5084782;28;20071;-56
2021/10/16 06:33:26;;;;;;;23.58;3.75;;;;;;;;;;5086617;28;20118;-56
2021/10/16 06:35:53;;;;;;;13.52;4.30;;;;;;;;;;5087813;28;20101;-56
2021/10/16 06:38:37;;;;;;;10.23;4.53;;;;;;;;;;5086760;28;20070;-56
2021/10/16 06:41:04;;;;;;;11.30;4.55;;;;;;;;;;5088391;28;20075;-56
2021/10/16 06:43:49;;;;;;;5.68;3.75;;;;;;;;;;5084578;28;20459;-57
2021/10/16 06:46:38;;;;;;;14.13;4.60;;;;;;;;;;5083988;28;20048;-56
2021/10/16 06:49:15;;;;;;;13.23;5.28;;;;;;;;;;5086483;28;20094;-57
2021/10/16 06:51:42;;;;;;;11.25;4.68;;;;;;;;;;5085314;28;20043;-57
2021/10/16 06:54:12;;;;;;;11.50;4.88;;;;;;;;;;5085472;28;20117;-57
2021/10/16 06:56:39;;;;;;;8.25;3.28;;;;;;;;;;5085848;28;20094;-55
2021/10/16 06:59:06;;;;;;;11.63;5.05;;;;;;;;;;5087058;28;20048;-56
2021/10/16 07:01:32;;;;;;;10.65;4.75;;;;;;;;;;5089068;28;20047;-56
2021/10/16 07:04:06;;;;;;;9.35;4.82;;;;;;;;;;5089318;28;20082;-57
2021/10/16 07:06:33;;;;;;;8.95;4.13;;;;;;;;;;5082985;28;20127;-55
2021/10/16 07:09:00;;;;;;;8.90;4.68;;;;;;;;;;5087481;28;20044;-56
2021/10/16 07:11:26;;;;;;;14.95;3.70;;;;;;;;;;5084763;28;20075;-57
2021/10/16 07:13:52;;;;;;;13.80;4.68;;;;;;;;;;5084072;28;20055;-56
2021/10/16 07:16:19;;;;;;;18.45;4.75;;;;;;;;;;5113273;27;20048;-56
2021/10/16 07:18:45;;;;;;;10.65;4.15;;;;;;;;;;5090123;28;20087;-56
2021/10/16 07:21:11;;;;;;;10.98;5.18;;;;;;;;;;5092229;28;20044;-56
2021/10/16 07:23:38;;;;;;;10.63;3.78;;;;;;;;;;5088247;28;20051;-56
2021/10/16 07:26:04;;;;;;;13.43;4.40;;;;;;;;;;5083666;28;20068;-54
2021/10/16 07:28:31;;;;;;;12.60;4.80;;;;;;;;;;5087987;28;20070;-55
2021/10/16 07:30:57;;;;;;;13.27;5.78;;;;;;;;;;5078587;28;20040;-56
2021/10/16 07:33:24;;;;;;;17.75;4.60;;;;;;;;;;5092939;28;20129;-55
2021/10/16 07:35:50;;;;;;;6.65;3.03;;;;;;;;;;5084247;28;20507;-55
2021/10/16 07:38:16;;;;;;;11.35;4.65;;;;;;;;;;5088533;28;20487;-56
2021/10/16 07:40:43;;;;;;;11.95;4.85;;;;;;;;;;5085521;28;20056;-56
2021/10/16 07:43:09;;;;;;;19.83;4.57;;;;;;;;;;5089549;28;20040;-55
2021/10/16 07:45:35;;;;;;;15.88;4.70;;;;;;;;;;5088499;28;20054;-55
2021/10/16 07:48:02;;;;;;;13.73;4.60;;;;;;;;;;5087803;28;20132;-56
2021/10/16 07:50:29;;;;;;;10.15;4.88;;;;;;;;;;5086535;28;20044;-55
2021/10/16 07:52:55;;;;;;;11.68;5.10;;;;;;;;;;5082599;28;20036;-55
2021/10/16 07:55:21;;;;;;;11.55;3.72;;;;;;;;;;5077910;28;20076;-56
2021/10/16 07:57:48;;;;;;;10.35;4.78;;;;;;;;;;5080353;28;20115;-56
2021/10/16 08:00:15;;;;;;;12.25;4.97;;;;;;;;;;5074376;28;20166;-56
2021/10/16 08:02:42;;;;;;;14.57;5.70;;;;;;;;;;5078695;28;20056;-55
2021/10/16 08:05:08;;;;;;;15.80;4.97;;;;;;;;;;5079845;28;20052;-55
2021/10/16 08:07:34;;;;;;;15.30;5.07;;;;;;;;;;5077110;28;20040;-55
2021/10/16 08:10:01;;;;;;;9.48;3.47;;;;;;;;;;5111040;27;20528;-56
2021/10/16 08:12:28;;;;;;;15.68;4.43;;;;;;;;;;5075332;28;20063;-56
2021/10/16 08:14:54;;;;;;;12.18;4.63;;;;;;;;;;5077606;28;20051;-56
2021/10/16 08:17:21;;;;;;;11.57;4.53;;;;;;;;;;5091383;28;20072;-56
2021/10/16 08:19:47;;;;;;;9.10;4.03;;;;;;;;;;5088407;28;20059;-56
2021/10/16 08:22:15;;;;;;;13.45;4.20;;;;;;;;;;5084537;28;20060;-57
2021/10/16 08:24:43;;;;;;;16.15;4.32;;;;;;;;;;5085405;28;20087;-56
2021/10/16 08:27:09;;;;;;;10.35;4.25;;;;;;;;;;5083041;28;20081;-55
2021/10/16 08:29:36;;;;;;;11.88;4.55;;;;;;;;;;5078727;28;20044;-56
2021/10/16 08:32:02;;;;;;;14.18;4.20;;;;;;;;;;5076238;28;20404;-55
2021/10/16 08:34:29;;;;;;;9.35;4.60;;;;;;;;;;5086691;28;20043;-56
2021/10/16 08:36:55;;;;;;;11.73;4.38;;;;;;;;;;5085754;28;20098;-55
2021/10/16 08:39:23;;;;;;;13.18;4.70;;;;;;;;;;5072329;28;20064;-55
2021/10/16 08:41:50;;;;;;;13.18;3.90;;;;;;;;;;5073264;28;20044;-54
2021/10/16 08:44:16;;;;;;;14.65;3.65;;;;;;;;;;5073458;28;20475;-54
2021/10/16 08:46:43;;;;;;;17.63;4.28;;;;;;;;;;5072777;28;20056;-55
2021/10/16 08:49:11;;;;;;;8.60;3.38;;;;;;;;;;5076898;28;20044;-55
2021/10/16 08:51:38;;;;;;;13.35;4.55;;;;;;;;;;5088499;28;20097;-55
2021/10/16 08:54:05;;;;;;;15.27;4.15;;;;;;;;;;5090064;28;20444;-55
2021/10/16 08:56:31;;;;;;;8.68;4.35;;;;;;;;;;5081446;28;20123;-56
2021/10/16 08:58:57;;;;;;;13.60;4.20;;;;;;;;;;5086838;28;20051;-56
2021/10/16 09:01:24;;;;;;;7.20;3.78;;;;;;;;;;5086917;28;20445;-55
2021/10/16 09:03:54;;;;;;;13.13;4.50;;;;;;;;;;5088461;28;20428;-55
2021/10/16 09:06:23;;;;;;;9.18;4.20;;;;;;;;;;5091164;28;20044;-55
2021/10/16 09:08:53;;;;;;;9.73;3.80;;;;;;;;;;5089011;28;20515;-55
2021/10/16 09:11:20;;;;;;;9.25;3.85;;;;;;;;;;5096141;28;20070;-55
2021/10/16 09:13:48;;;;;;;7.03;3.78;;;;;;;;;;5084727;28;20041;-55
2021/10/16 09:16:25;;;;;;;8.90;4.07;;;;;;;;;;5083512;28;20079;-56
2021/10/16 09:18:57;;;;;;;11.80;4.00;;;;;;;;;;5089614;28;20058;-55
2021/10/16 09:21:25;;;;;;;10.73;3.92;;;;;;;;;;5076530;28;20070;-55
2021/10/16 09:24:05;;;;;;;11.52;3.40;;;;;;;;;;5087700;28;20039;-56
2021/10/16 09:26:32;;;;;;;9.85;3.63;;;;;;;;;;5092109;28;20539;-55
2021/10/16 09:28:59;;;;;;;9.02;4.13;;;;;;;;;;5090765;28;20118;-55
2021/10/16 09:31:30;;;;;;;17.25;4.57;;;;;;;;;;5088127;28;20065;-55
2021/10/16 09:33:57;;;;;;;7.90;3.83;;;;;;;;;;5089724;28;20119;-55
2021/10/16 09:36:23;;;;;;;15.73;3.28;;;;;;;;;;5090891;28;20445;-55
2021/10/16 09:38:50;;;;;;;15.32;3.75;;;;;;;;;;5090962;28;20093;-55
2021/10/16 09:41:30;;;;;;;9.20;4.05;;;;;;;;;;5088626;28;20128;-56
2021/10/16 09:43:57;;;;;;;10.10;3.47;;;;;;;;;;5087579;28;20407;-55
2021/10/16 09:46:24;;;;;;;11.32;3.67;;;;;;;;;;5088765;28;20075;-56
2021/10/16 09:48:51;;;;;;;10.93;3.58;;;;;;;;;;5088477;28;20251;-56
2021/10/16 09:51:18;;;;;;;7.90;3.47;;;;;;;;;;5088542;28;20052;-55
2021/10/16 09:53:46;;;;;;;10.05;3.85;;;;;;;;;;5092198;28;20064;-56
2021/10/16 09:56:13;;;;;;;10.57;3.55;;;;;;;;;;5090327;28;20457;-55
2021/10/16 09:58:40;;;;;;;6.63;3.22;;;;;;;;;;5090496;28;20124;-55
2021/10/16 10:01:08;;;;;;;11.38;3.60;;;;;;;;;;5090430;28;20087;-55
2021/10/16 10:03:36;;;;;;;13.65;4.43;;;;;;;;;;5090406;28;20036;-55
2021/10/16 10:06:03;;;;;;;9.50;3.40;;;;;;;;;;5091346;28;20120;-55
2021/10/16 10:08:29;;;;;;;7.43;3.70;;;;;;;;;;5092085;28;20079;-55
2021/10/16 10:10:55;;;;;;;12.85;3.78;;;;;;;;;;5090027;28;20048;-55
2021/10/16 10:13:26;;;;;;;12.50;2.95;;;;;;;;;;5088704;28;20040;-56
2021/10/16 10:15:54;;;;;;;7.53;3.30;;;;;;;;;;5090618;28;20075;-56
2021/10/16 10:21:21;;;;;;;5.65;2.50;;;;;;;;;;5032709;28;20532;-55
2021/10/16 10:23:54;;;;;;;9.38;3.08;;;;;;;;;;5034567;28;20413;-56
2021/10/16 10:26:32;;;;;;;13.93;4.10;;;;;;;;;;5038579;28;20516;-55
2021/10/16 10:29:09;;;;;;;10.40;3.38;;;;;;;;;;5037985;28;20077;-55
2021/10/16 10:31:54;;;;;;;9.57;3.45;;;;;;;;;;5037497;28;20076;-55
2021/10/16 10:34:28;;;;;;;13.10;3.30;;;;;;;;;;5037680;28;20131;-55
2021/10/16 10:36:57;;;;;;;9.82;3.13;;;;;;;;;;5037803;28;20091;-56
2021/10/16 10:39:33;;;;;;;10.68;3.25;;;;;;;;;;5033584;28;20068;-55
2021/10/16 10:42:01;;;;;;;9.90;2.80;;;;;;;;;;5046214;28;20120;-55
2021/10/16 10:44:38;;;;;;;6.07;3.35;;;;;;;;;;5044239;28;20080;-55
2021/10/16 10:47:23;;;;;;;16.20;3.72;;;;;;;;;;5039625;28;20053;-56
2021/10/16 10:49:53;;;;;;;7.72;2.90;;;;;;;;;;5037573;28;20579;-55
2021/10/16 10:52:22;;;;;;;17.70;3.83;;;;;;;;;;5037376;28;20068;-55
2021/10/16 10:55:06;;;;;;;10.43;3.40;;;;;;;;;;5036623;28;20079;-56
2021/10/16 10:57:53;;;;;;;7.80;3.05;;;;;;;;;;5075255;28;20075;-55
2021/10/16 11:00:46;;;;;;;12.55;4.68;;;;;;;;;;5089792;28;20062;-55
2021/10/16 11:03:30;;;;;;;16.73;5.22;;;;;;;;;;5085812;28;20083;-55
2021/10/16 11:06:09;;;;;;;8.37;4.10;;;;;;;;;;5086992;28;20097;-55
2021/10/16 11:08:36;;;;;;;10.77;4.07;;;;;;;;;;5089723;28;20117;-56
2021/10/16 11:11:03;;;;;;;16.08;6.32;;;;;;;;;;5089701;28;20048;-56
2021/10/16 11:13:32;;;;;;;11.20;4.70;;;;;;;;;;5089644;28;20051;-55
2021/10/16 11:15:59;;;;;;;11.38;3.95;;;;;;;;;;5089274;28;20040;-55
2021/10/16 11:18:26;;;;;;;12.73;4.88;;;;;;;;;;5089420;28;20067;-56
2021/10/16 11:20:52;;;;;;;12.07;4.50;;;;;;;;;;5091847;28;20108;-55
2021/10/16 11:23:21;;;;;;;11.20;4.85;;;;;;;;;;5088235;28;20450;-55
2021/10/16 11:26:05;;;;;;;18.80;4.35;;;;;;;;;;5089398;28;20040;-55
2021/10/16 11:28:32;;;;;;;9.25;4.05;;;;;;;;;;5089753;28;20056;-56
2021/10/16 11:30:59;;;;;;;6.72;3.58;;;;;;;;;;5088468;28;20506;-55
2021/10/16 11:33:30;;;;;;;21.48;6.50;;;;;;;;;;5090046;28;20114;-56
2021/10/16 11:35:57;;;;;;;13.63;4.97;;;;;;;;;;5091406;28;20091;-55
2021/10/16 11:38:25;;;;;;;10.40;3.80;;;;;;;;;;5089191;28;20055;-56
2021/10/16 11:40:52;;;;;;;8.98;3.83;;;;;;;;;;5087670;28;20054;-54
2021/10/16 11:43:20;;;;;;;11.85;4.95;;;;;;;;;;5093525;28;20052;-56
2021/10/16 11:45:49;;;;;;;11.55;4.65;;;;;;;;;;5093705;28;20083;-55
2021/10/16 11:48:16;;;;;;;14.13;4.68;;;;;;;;;;5093715;28;20109;-56
2021/10/16 11:50:43;;;;;;;10.88;4.43;;;;;;;;;;5093513;28;20115;-56
2021/10/16 11:53:14;;;;;;;11.68;3.67;;;;;;;;;;5084820;28;20488;-55
2021/10/16 11:55:42;;;;;;;11.35;4.30;;;;;;;;;;5091334;28;20056;-54
2021/10/16 11:58:13;;;;;;;12.45;3.33;;;;;;;;;;5088832;28;20134;-54
2021/10/16 12:00:50;;;;;;;12.23;4.07;;;;;;;;;;5090325;28;20097;-54
2021/10/16 12:03:18;;;;;;;18.67;4.68;;;;;;;;;;5092858;28;20098;-54
2021/10/16 12:05:45;;;;;;;15.43;3.85;;;;;;;;;;5093336;28;20073;-54
2021/10/16 12:08:16;;;;;;;12.05;4.88;;;;;;;;;;5091539;28;20055;-55
2021/10/16 12:10:50;;;;;;;11.52;4.05;;;;;;;;;;5090921;28;20051;-55
2021/10/16 12:13:23;;;;;;;15.32;5.05;;;;;;;;;;5091048;28;20082;-55
2021/10/16 12:15:52;;;;;;;14.48;4.45;;;;;;;;;;5089995;28;20083;-54
2021/10/16 12:18:25;;;;;;;14.25;3.88;;;;;;;;;;5090519;28;20044;-55
2021/10/16 12:21:01;;;;;;;13.20;4.68;;;;;;;;;;5092998;28;20048;-56
2021/10/16 12:23:45;;;;;;;12.02;4.90;;;;;;;;;;5091827;28;20039;-56
2021/10/16 12:26:38;;;;;;;19.20;4.35;;;;;;;;;;5090719;28;20080;-55
2021/10/16 12:29:06;;;;;;;9.85;4.43;;;;;;;;;;5089447;28;20063;-55
2021/10/16 12:31:45;;;;;;;13.93;5.88;;;;;;;;;;5092938;28;20657;-54
2021/10/16 12:34:29;;;;;;;8.98;4.25;;;;;;;;;;5092596;28;20767;-55
2021/10/16 12:36:57;;;;;;;9.35;3.40;;;;;;;;;;5092821;28;20059;-55
2021/10/16 12:39:55;;;;;;;11.63;4.80;;;;;;;;;;5076671;28;20040;-54
2021/10/16 12:42:26;;;;;;;12.75;5.10;;;;;;;;;;5011749;28;20057;-56
2021/10/16 12:44:53;;;;;;;12.48;4.75;;;;;;;;;;5008132;28;20057;-55
2021/10/16 12:47:20;;;;;;;11.60;4.70;;;;;;;;;;5011790;28;20046;-55
2021/10/16 12:49:48;;;;;;;9.52;4.35;;;;;;;;;;5011723;28;20137;-55
2021/10/16 12:52:25;;;;;;;12.23;3.85;;;;;;;;;;5011448;28;20061;-56
2021/10/16 12:54:51;;;;;;;11.55;4.25;;;;;;;;;;5011389;28;20506;-55
2021/10/16 12:57:18;;;;;;;7.10;3.15;;;;;;;;;;5011249;28;20565;-56
2021/10/16 12:59:44;;;;;;;10.10;3.97;;;;;;;;;;5012214;28;20058;-55
2021/10/16 13:02:11;;;;;;;7.43;3.55;;;;;;;;;;5011379;28;20085;-55
2021/10/16 13:04:55;;;;;;;21.17;5.32;;;;;;;;;;5011455;28;20120;-55
2021/10/16 13:07:21;;;;;;;8.10;3.30;;;;;;;;;;5024708;28;20070;-56
2021/10/16 13:09:48;;;;;;;19.75;5.05;;;;;;;;;;4999026;28;20563;-55
2021/10/16 13:12:14;;;;;;;11.55;4.88;;;;;;;;;;5011182;28;21089;-56
2021/10/16 13:14:41;;;;;;;11.60;5.43;;;;;;;;;;5011861;28;20133;-55
2021/10/16 13:17:08;;;;;;;10.45;4.78;;;;;;;;;;5021524;28;20500;-55
2021/10/16 13:19:34;;;;;;;7.63;4.20;;;;;;;;;;5085408;28;20056;-57
2021/10/16 13:22:00;;;;;;;13.82;5.97;;;;;;;;;;5091487;28;20436;-55
2021/10/16 13:24:27;;;;;;;21.25;4.72;;;;;;;;;;5091647;28;20041;-55
2021/10/16 13:26:53;;;;;;;13.98;4.75;;;;;;;;;;5093203;28;20048;-55
2021/10/16 13:29:19;;;;;;;10.18;4.10;;;;;;;;;;5090348;28;20451;-55
2021/10/16 13:31:47;;;;;;;10.10;4.47;;;;;;;;;;5091525;28;20040;-55
2021/10/16 13:34:13;;;;;;;10.13;4.47;;;;;;;;;;5091471;28;20051;-55
2021/10/16 13:36:39;;;;;;;14.65;5.07;;;;;;;;;;5091419;28;20044;-56
2021/10/16 13:39:06;;;;;;;13.95;4.65;;;;;;;;;;5091959;28;20052;-55
2021/10/16 13:41:33;;;;;;;8.77;3.47;;;;;;;;;;5092886;28;20051;-55
2021/10/16 13:44:01;;;;;;;9.15;4.03;;;;;;;;;;5091121;28;20055;-57
2021/10/16 13:46:27;;;;;;;17.05;4.65;;;;;;;;;;5091196;28;20115;-56
2021/10/16 13:48:53;;;;;;;16.40;4.65;;;;;;;;;;5091135;28;20453;-56
2021/10/16 13:51:20;;;;;;;9.85;4.53;;;;;;;;;;5090981;28;20063;-56
2021/10/16 13:53:46;;;;;;;12.05;4.20;;;;;;;;;;5093104;28;20052;-56
2021/10/16 13:56:12;;;;;;;13.15;4.13;;;;;;;;;;5090450;28;20046;-55
2021/10/16 13:58:39;;;;;;;13.10;4.90;;;;;;;;;;5090799;28;20098;-55
2021/10/16 14:01:05;;;;;;;15.02;4.60;;;;;;;;;;5091048;28;20494;-55
2021/10/16 14:03:31;;;;;;;14.68;4.25;;;;;;;;;;5091081;28;20492;-55
2021/10/16 14:05:58;;;;;;;14.40;5.07;;;;;;;;;;5091206;28;20056;-55
2021/10/16 14:08:24;;;;;;;10.70;4.28;;;;;;;;;;5090316;28;20074;-55
2021/10/16 14:10:51;;;;;;;15.48;4.38;;;;;;;;;;5090446;28;20044;-55
2021/10/16 14:13:17;;;;;;;7.47;3.65;;;;;;;;;;5090663;28;20060;-56
2021/10/16 14:15:44;;;;;;;6.60;3.20;;;;;;;;;;5091011;28;20415;-55
2021/10/16 14:18:10;;;;;;;7.63;3.35;;;;;;;;;;5090575;28;20040;-55
2021/10/16 14:20:36;;;;;;;9.95;3.63;;;;;;;;;;5092365;28;20135;-55
2021/10/16 14:23:03;;;;;;;13.25;4.25;;;;;;;;;;5085505;28;20044;-55
2021/10/16 14:25:29;;;;;;;14.32;5.13;;;;;;;;;;5088931;28;20044;-55
2021/10/16 14:27:55;;;;;;;11.45;5.50;;;;;;;;;;5089499;28;20067;-57
2021/10/16 14:30:22;;;;;;;19.88;6.43;;;;;;;;;;5089563;28;20097;-55
2021/10/16 14:32:48;;;;;;;13.85;4.97;;;;;;;;;;5091566;28;20411;-54
2021/10/16 14:35:14;;;;;;;11.10;5.03;;;;;;;;;;5089014;28;20048;-56
2021/10/16 14:37:41;;;;;;;11.70;5.40;;;;;;;;;;5089107;28;20046;-55
2021/10/16 14:40:07;;;;;;;11.80;4.93;;;;;;;;;;5084951;28;20507;-55
2021/10/16 14:42:34;;;;;;;8.35;3.83;;;;;;;;;;5090225;28;20511;-56
2021/10/16 14:45:00;;;;;;;15.52;5.03;;;;;;;;;;5089055;28;20407;-54
2021/10/16 14:47:26;;;;;;;13.73;4.82;;;;;;;;;;5083564;28;20125;-55